Time;durP1;ratioP1;P1;durP2;ratioP2;P2;SDS_P1;SDS_P2;PMS_P1;PMS_P2;Temp;Humidity;BMP_temperature;BMP_pressure;BME280_temperature;BME280_humidity;BME280_pressure;Samples;Min_cycle;Max_cycle;Signal;HPM_P1;HPM_P2
2020/12/15 00:00:37;;;;;;;21.65;13.85;;;4.60;99.90;;;;;;5066157;28;20479;-71
2020/12/15 00:03:03;;;;;;;19.67;13.38;;;4.60;99.90;;;;;;5051555;28;20037;-77
2020/12/15 00:05:28;;;;;;;21.70;15.02;;;4.50;99.90;;;;;;5047699;28;20029;-78
2020/12/15 00:07:54;;;;;;;24.23;15.65;;;4.50;99.90;;;;;;5045524;28;20025;-77
2020/12/15 00:10:19;;;;;;;23.40;16.98;;;4.50;99.90;;;;;;5047652;28;20029;-77
2020/12/15 00:12:46;;;;;;;22.83;14.15;;;4.50;99.90;;;;;;5046407;28;20395;-71
2020/12/15 00:15:11;;;;;;;20.85;13.27;;;4.40;99.90;;;;;;5047511;28;20025;-77
2020/12/15 00:17:37;;;;;;;19.77;12.60;;;4.40;99.90;;;;;;5047150;28;20565;-71
2020/12/15 00:20:07;;;;;;;16.33;11.35;;;4.30;99.90;;;;;;5064723;28;20032;-77
2020/12/15 00:22:34;;;;;;;19.92;12.60;;;4.30;99.90;;;;;;5066916;28;20036;-77
2020/12/15 00:25:00;;;;;;;19.48;12.20;;;4.30;99.90;;;;;;5062820;28;20043;-77
2020/12/15 00:27:26;;;;;;;21.48;13.38;;;4.30;99.90;;;;;;5066303;28;20472;-77
2020/12/15 00:29:51;;;;;;;23.30;14.88;;;4.40;99.90;;;;;;5057407;28;20028;-72
2020/12/15 00:32:17;;;;;;;21.02;14.15;;;4.40;99.90;;;;;;5056540;28;20067;-78
2020/12/15 00:34:43;;;;;;;22.45;14.98;;;4.30;99.90;;;;;;5049436;28;20033;-72
2020/12/15 00:37:09;;;;;;;19.70;13.98;;;4.30;99.90;;;;;;5047810;28;20471;-77
2020/12/15 00:39:34;;;;;;;21.60;14.63;;;4.20;99.90;;;;;;5056629;28;20036;-71
2020/12/15 00:42:00;;;;;;;22.88;16.13;;;4.20;99.90;;;;;;5068126;28;20025;-77
2020/12/15 00:44:25;;;;;;;24.10;14.57;;;4.20;99.90;;;;;;5058526;28;20041;-77
2020/12/15 00:46:51;;;;;;;23.63;15.25;;;4.20;99.90;;;;;;5047690;28;20032;-77
2020/12/15 00:49:18;;;;;;;23.00;14.93;;;4.20;99.90;;;;;;5046692;28;20037;-77
2020/12/15 00:51:47;;;;;;;17.60;10.93;;;4.30;99.90;;;;;;5047358;28;20071;-77
2020/12/15 00:54:12;;;;;;;21.88;14.23;;;4.30;99.90;;;;;;5045481;28;20044;-77
2020/12/15 00:56:40;;;;;;;22.40;14.88;;;4.30;99.90;;;;;;5046549;28;20025;-71
2020/12/15 00:59:08;;;;;;;20.58;14.80;;;4.30;99.90;;;;;;5046828;28;20044;-77
2020/12/15 01:01:34;;;;;;;26.30;17.77;;;4.30;99.90;;;;;;5061759;28;20557;-78
2020/12/15 01:04:00;;;;;;;19.98;15.43;;;4.30;99.90;;;;;;5066441;28;20032;-77
2020/12/15 01:06:26;;;;;;;18.65;13.65;;;4.30;99.90;;;;;;5051899;28;20119;-77
2020/12/15 01:08:51;;;;;;;17.30;5.05;;;4.30;99.90;;;;;;5058137;28;20130;-71
2020/12/15 01:11:17;;;;;;;11.77;4.50;;;4.60;99.90;;;;;;5053145;28;20059;-77
2020/12/15 01:13:43;;;;;;;11.02;5.43;;;5.00;99.90;;;;;;5052608;28;20080;-71
2020/12/15 01:16:08;;;;;;;16.38;12.50;;;5.10;99.90;;;;;;5060132;28;20032;-77
2020/12/15 01:18:37;;;;;;;16.85;9.77;;;5.00;99.90;;;;;;5047918;28;20048;-71
2020/12/15 01:21:04;;;;;;;15.50;9.68;;;5.00;99.90;;;;;;5049050;28;20040;-77
2020/12/15 01:23:30;;;;;;;12.10;7.28;;;4.90;99.90;;;;;;5061674;28;20082;-78
2020/12/15 01:25:56;;;;;;;13.02;6.90;;;4.80;99.90;;;;;;5049694;28;20482;-71
2020/12/15 01:28:21;;;;;;;9.40;4.38;;;4.80;99.90;;;;;;5066873;28;20052;-77
2020/12/15 01:30:47;;;;;;;9.77;4.03;;;4.90;99.90;;;;;;5064855;28;20066;-71
2020/12/15 01:33:13;;;;;;;11.40;5.65;;;5.10;99.90;;;;;;5051741;28;20037;-77
2020/12/15 01:35:38;;;;;;;11.02;5.82;;;5.20;99.90;;;;;;5052326;28;20039;-71
2020/12/15 01:38:04;;;;;;;11.23;6.25;;;5.30;99.90;;;;;;5061777;28;20178;-77
2020/12/15 01:40:30;;;;;;;11.95;5.90;;;5.30;99.90;;;;;;5051535;28;20072;-77
2020/12/15 01:42:56;;;;;;;11.50;6.68;;;5.40;99.90;;;;;;5048469;28;20559;-77
2020/12/15 01:45:22;;;;;;;11.18;6.95;;;5.30;99.90;;;;;;5055330;28;20416;-77
2020/12/15 01:47:48;;;;;;;12.60;7.25;;;5.40;99.90;;;;;;5055056;28;20025;-71
2020/12/15 01:50:14;;;;;;;10.65;6.00;;;5.40;99.90;;;;;;5052516;28;20047;-72
2020/12/15 01:52:39;;;;;;;14.88;8.52;;;5.40;99.90;;;;;;5055342;28;20041;-71
2020/12/15 01:55:06;;;;;;;12.45;7.97;;;5.40;99.90;;;;;;5060812;28;20029;-77
2020/12/15 01:57:32;;;;;;;15.18;7.50;;;5.40;99.90;;;;;;5062524;28;20036;-77
2020/12/15 01:59:57;;;;;;;12.93;6.57;;;5.30;99.90;;;;;;5050295;28;20039;-77
2020/12/15 02:02:23;;;;;;;11.50;6.25;;;5.30;99.90;;;;;;5061070;28;20356;-77
2020/12/15 02:04:49;;;;;;;12.98;7.15;;;5.20;99.90;;;;;;5055189;28;20525;-77
2020/12/15 02:07:16;;;;;;;12.93;7.10;;;5.10;99.90;;;;;;5063163;28;20457;-77
2020/12/15 02:09:42;;;;;;;12.68;7.07;;;5.00;99.90;;;;;;5065820;28;20032;-71
2020/12/15 02:12:07;;;;;;;10.18;6.22;;;5.00;99.90;;;;;;5064525;28;20032;-72
2020/12/15 02:14:33;;;;;;;11.13;6.60;;;4.90;99.90;;;;;;5046925;28;20480;-77
2020/12/15 02:17:00;;;;;;;11.90;6.25;;;4.70;99.90;;;;;;5045518;28;20068;-77
2020/12/15 02:19:25;;;;;;;13.23;6.70;;;4.70;99.90;;;;;;5044834;28;20123;-71
2020/12/15 02:21:56;;;;;;;13.65;7.03;;;4.70;99.90;;;;;;5047614;28;20462;-77
2020/12/15 02:24:22;;;;;;;12.27;6.50;;;4.70;99.90;;;;;;5054447;28;20043;-77
2020/12/15 02:26:48;;;;;;;26.15;11.45;;;4.60;99.90;;;;;;5050443;28;20037;-71
2020/12/15 02:29:14;;;;;;;27.27;14.43;;;4.50;99.90;;;;;;5046685;28;20478;-71
2020/12/15 02:31:40;;;;;;;27.58;15.40;;;4.60;99.90;;;;;;5049400;28;20045;-71
2020/12/15 02:34:06;;;;;;;23.63;13.77;;;4.60;99.90;;;;;;5045221;28;20056;-71
2020/12/15 02:36:32;;;;;;;21.10;11.98;;;4.60;99.90;;;;;;5047122;28;20036;-71
2020/12/15 02:39:16;;;;;;;19.58;10.45;;;4.50;99.90;;;;;;5066208;28;20067;-77
2020/12/15 02:41:41;;;;;;;15.65;9.60;;;4.50;99.90;;;;;;5063838;28;20033;-77
2020/12/15 02:44:08;;;;;;;16.85;9.48;;;4.50;99.90;;;;;;5064979;28;20475;-72
2020/12/15 02:46:34;;;;;;;14.23;8.00;;;4.50;99.90;;;;;;5063221;28;20063;-77
2020/12/15 02:48:59;;;;;;;12.88;7.78;;;4.50;99.90;;;;;;5046031;28;20068;-77
2020/12/15 02:51:26;;;;;;;15.60;9.75;;;4.50;99.90;;;;;;5045516;28;20424;-78
2020/12/15 02:53:52;;;;;;;17.05;8.77;;;4.40;99.90;;;;;;5046082;28;20164;-71
2020/12/15 02:56:25;;;;;;;16.58;9.25;;;4.30;99.90;;;;;;5051810;28;20033;-77
2020/12/15 02:58:51;;;;;;;20.48;11.32;;;4.40;99.90;;;;;;5050926;28;20408;-77
2020/12/15 03:01:17;;;;;;;23.67;12.38;;;4.40;99.90;;;;;;5054941;28;20441;-71
2020/12/15 03:03:44;;;;;;;24.52;12.45;;;4.40;99.90;;;;;;5045408;28;20055;-77
2020/12/15 03:06:10;;;;;;;22.75;11.90;;;4.40;99.90;;;;;;5043505;28;20025;-71
2020/12/15 03:08:36;;;;;;;23.05;10.20;;;4.50;99.90;;;;;;5045322;28;20477;-77
2020/12/15 03:11:04;;;;;;;20.92;10.55;;;4.40;99.90;;;;;;5044614;28;20025;-71
2020/12/15 03:13:29;;;;;;;24.58;12.43;;;4.40;99.90;;;;;;5044211;28;20047;-71
2020/12/15 03:15:55;;;;;;;21.40;11.90;;;4.50;99.90;;;;;;5044856;28;20033;-77
2020/12/15 03:18:21;;;;;;;17.65;11.07;;;4.50;99.90;;;;;;5058845;28;20076;-77
2020/12/15 03:20:47;;;;;;;17.10;10.27;;;4.50;99.90;;;;;;5065218;28;20029;-77
2020/12/15 03:23:17;;;;;;;21.88;11.40;;;4.40;99.90;;;;;;5053097;28;20065;-71
2020/12/15 03:25:43;;;;;;;17.88;10.73;;;4.40;99.90;;;;;;5064998;28;20053;-78
2020/12/15 03:28:09;;;;;;;25.33;16.02;;;4.30;99.90;;;;;;5062309;28;20075;-71
2020/12/15 03:30:35;;;;;;;29.20;18.27;;;4.40;99.90;;;;;;5064665;28;20601;-77
2020/12/15 03:33:01;;;;;;;31.83;18.83;;;4.40;99.90;;;;;;5062471;28;20139;-71
2020/12/15 03:35:27;;;;;;;32.35;20.35;;;4.10;99.90;;;;;;5063498;28;20037;-77
2020/12/15 03:37:55;;;;;;;25.27;15.18;;;4.10;99.90;;;;;;5060733;28;20035;-77
2020/12/15 03:40:21;;;;;;;27.63;12.60;;;4.10;99.90;;;;;;5050226;28;20112;-71
2020/12/15 03:42:47;;;;;;;22.50;13.13;;;4.10;99.90;;;;;;5052833;28;20040;-71
2020/12/15 03:45:13;;;;;;;22.52;12.70;;;4.20;99.90;;;;;;5048716;28;20380;-71
2020/12/15 03:47:38;;;;;;;23.52;12.40;;;4.10;99.90;;;;;;5047691;28;20309;-77
2020/12/15 03:50:04;;;;;;;23.58;12.52;;;4.10;99.90;;;;;;5047444;28;20075;-77
2020/12/15 03:52:30;;;;;;;24.23;14.95;;;4.20;99.90;;;;;;5048250;28;20041;-77
2020/12/15 03:54:56;;;;;;;25.55;13.73;;;4.20;99.90;;;;;;5059809;28;20032;-78
2020/12/15 03:57:21;;;;;;;27.63;16.58;;;4.20;99.90;;;;;;5067915;28;20903;-77
2020/12/15 03:59:47;;;;;;;24.80;15.85;;;4.10;99.90;;;;;;5056270;28;20434;-72
2020/12/15 04:02:13;;;;;;;23.98;15.48;;;4.10;99.90;;;;;;5048255;28;20040;-71
2020/12/15 04:04:38;;;;;;;24.70;16.38;;;4.00;99.90;;;;;;5053476;28;20067;-71
2020/12/15 04:07:04;;;;;;;20.42;13.68;;;4.10;99.90;;;;;;5068496;28;20067;-71
2020/12/15 04:09:29;;;;;;;20.08;14.02;;;4.10;99.90;;;;;;5061874;28;20036;-77
2020/12/15 04:11:55;;;;;;;26.05;15.88;;;4.10;99.90;;;;;;5048505;28;20455;-71
2020/12/15 04:14:21;;;;;;;24.75;14.07;;;4.10;99.90;;;;;;5046270;28;20033;-71
2020/12/15 04:16:46;;;;;;;27.05;16.05;;;4.10;99.90;;;;;;5048493;28;20032;-77
2020/12/15 04:19:12;;;;;;;26.48;14.95;;;4.10;99.90;;;;;;5047146;28;20041;-77
2020/12/15 04:21:37;;;;;;;25.00;15.02;;;4.20;99.90;;;;;;5046909;28;20037;-77
2020/12/15 04:24:03;;;;;;;25.67;14.73;;;4.20;99.90;;;;;;5057298;28;20127;-71
2020/12/15 04:26:29;;;;;;;20.70;13.07;;;4.10;99.90;;;;;;5067431;28;20085;-77
2020/12/15 04:28:55;;;;;;;20.25;11.57;;;4.00;99.90;;;;;;5058104;28;20036;-71
2020/12/15 04:31:20;;;;;;;26.48;15.50;;;4.00;99.90;;;;;;5045849;28;20045;-77
2020/12/15 04:33:46;;;;;;;23.13;13.85;;;4.10;99.90;;;;;;5045810;28;20116;-71
2020/12/15 04:36:11;;;;;;;19.98;13.80;;;4.10;99.90;;;;;;5047308;28;20115;-78
2020/12/15 04:38:37;;;;;;;24.33;13.48;;;4.10;99.90;;;;;;5048007;28;20033;-77
2020/12/15 04:41:03;;;;;;;24.35;13.90;;;4.20;99.90;;;;;;5067709;28;20046;-71
2020/12/15 04:43:32;;;;;;;22.63;12.65;;;4.10;99.90;;;;;;5066198;28;20251;-78
2020/12/15 04:46:00;;;;;;;23.35;12.63;;;4.10;99.90;;;;;;5046516;28;20029;-71
2020/12/15 04:48:28;;;;;;;22.08;12.07;;;4.10;99.90;;;;;;5046790;28;20428;-77
2020/12/15 04:50:58;;;;;;;20.98;12.57;;;4.10;99.90;;;;;;5046264;28;20068;-71
2020/12/15 04:53:27;;;;;;;24.13;13.75;;;4.10;99.90;;;;;;5046223;28;20219;-77
2020/12/15 04:55:56;;;;;;;24.25;13.60;;;4.10;99.90;;;;;;5050450;28;20040;-77
2020/12/15 04:58:23;;;;;;;22.95;14.05;;;4.10;99.90;;;;;;5051919;28;20032;-78
2020/12/15 05:00:49;;;;;;;24.52;13.70;;;4.10;99.90;;;;;;5061105;28;20455;-78
2020/12/15 05:03:20;;;;;;;22.25;13.60;;;4.10;99.90;;;;;;5064524;28;20375;-71
2020/12/15 05:05:46;;;;;;;24.50;14.40;;;4.10;99.90;;;;;;5066287;28;20478;-69
2020/12/15 05:08:15;;;;;;;34.55;19.10;;;4.10;99.90;;;;;;5066095;28;20149;-71
2020/12/15 05:10:41;;;;;;;31.42;17.75;;;4.10;99.90;;;;;;5054437;28;20032;-77
2020/12/15 05:13:07;;;;;;;27.17;17.38;;;4.20;99.90;;;;;;5047079;28;20086;-77
2020/12/15 05:15:33;;;;;;;22.38;15.80;;;4.10;99.90;;;;;;5045200;28;20052;-77
2020/12/15 05:18:03;;;;;;;25.02;15.35;;;4.10;99.90;;;;;;5046646;28;20416;-77
2020/12/15 05:20:31;;;;;;;24.90;14.75;;;4.20;99.90;;;;;;5045180;28;20405;-71
2020/12/15 05:22:58;;;;;;;23.20;14.45;;;4.00;99.90;;;;;;5046167;28;20048;-77
2020/12/15 05:25:34;;;;;;;28.08;17.15;;;4.10;99.90;;;;;;5045129;28;20078;-71
2020/12/15 05:28:02;;;;;;;29.25;16.52;;;4.10;99.90;;;;;;5044740;28;20036;-77
2020/12/15 05:30:29;;;;;;;24.58;15.10;;;4.10;99.90;;;;;;5045860;28;20116;-71
2020/12/15 05:33:01;;;;;;;22.10;15.30;;;4.10;99.90;;;;;;5045754;28;20499;-78
2020/12/15 05:35:35;;;;;;;25.27;15.25;;;4.10;99.90;;;;;;5045000;28;20047;-77
2020/12/15 05:38:04;;;;;;;24.67;14.80;;;4.00;99.90;;;;;;5045968;28;20388;-71
2020/12/15 05:40:30;;;;;;;24.98;16.40;;;4.00;99.90;;;;;;5045120;28;20036;-77
2020/12/15 05:43:01;;;;;;;29.00;17.67;;;4.10;99.90;;;;;;5045890;28;20395;-71
2020/12/15 05:45:32;;;;;;;28.48;17.30;;;4.10;99.90;;;;;;5044717;28;20041;-71
2020/12/15 05:48:07;;;;;;;23.67;16.83;;;4.20;99.90;;;;;;5045872;28;20307;-77
2020/12/15 05:50:38;;;;;;;20.33;13.10;;;4.20;99.90;;;;;;5045193;28;20343;-72
2020/12/15 05:53:05;;;;;;;18.00;10.02;;;4.20;99.90;;;;;;5046125;28;20034;-71
2020/12/15 05:55:31;;;;;;;12.52;7.50;;;4.30;99.90;;;;;;5044236;28;20036;-77
2020/12/15 05:57:58;;;;;;;20.52;13.00;;;4.50;99.90;;;;;;5046302;28;20028;-78
2020/12/15 06:00:29;;;;;;;27.52;16.17;;;4.60;99.90;;;;;;5043856;28;20649;-78
2020/12/15 06:03:06;;;;;;;25.05;17.45;;;4.60;99.90;;;;;;5045783;28;20080;-77
2020/12/15 06:05:33;;;;;;;24.75;17.83;;;4.60;99.90;;;;;;5042569;28;20612;-78
2020/12/15 06:08:00;;;;;;;24.50;16.27;;;4.60;99.90;;;;;;5045743;28;20029;-71
2020/12/15 06:10:27;;;;;;;31.17;18.30;;;4.60;99.90;;;;;;5049841;28;20057;-72
2020/12/15 06:12:55;;;;;;;25.98;19.23;;;4.60;99.90;;;;;;5055228;28;20032;-71
2020/12/15 06:15:20;;;;;;;25.55;17.33;;;4.60;99.90;;;;;;5056188;28;20037;-77
2020/12/15 06:17:59;;;;;;;40.05;25.35;;;4.60;99.90;;;;;;5050553;28;20036;-77
2020/12/15 06:20:32;;;;;;;24.80;15.90;;;4.50;99.90;;;;;;5049005;28;20037;-77
2020/12/15 06:22:59;;;;;;;15.35;9.60;;;4.50;99.90;;;;;;5052289;28;20075;-77
2020/12/15 06:25:35;;;;;;;18.20;12.82;;;4.70;99.90;;;;;;5049014;28;20070;-71
2020/12/15 06:28:09;;;;;;;16.65;9.82;;;4.80;99.90;;;;;;5048191;28;20056;-77
2020/12/15 06:30:40;;;;;;;18.58;10.15;;;4.90;99.90;;;;;;5044812;28;20068;-71
2020/12/15 06:33:08;;;;;;;12.65;7.95;;;4.90;99.90;;;;;;5048470;28;20059;-77
2020/12/15 06:35:36;;;;;;;19.52;11.75;;;5.00;99.90;;;;;;5049663;28;20075;-78
2020/12/15 06:38:04;;;;;;;18.95;12.40;;;5.00;99.90;;;;;;5049552;28;20542;-71
2020/12/15 06:40:43;;;;;;;19.55;11.70;;;5.10;99.90;;;;;;5051925;28;20033;-77
2020/12/15 06:43:09;;;;;;;18.08;12.50;;;5.00;99.90;;;;;;5050253;28;20029;-71
2020/12/15 06:45:35;;;;;;;18.00;8.60;;;5.10;99.90;;;;;;5052753;28;20392;-77
2020/12/15 06:48:06;;;;;;;17.27;11.43;;;5.00;99.90;;;;;;5048002;28;20104;-71
2020/12/15 06:50:42;;;;;;;20.50;14.07;;;5.10;99.90;;;;;;5051003;28;20466;-71
2020/12/15 06:53:09;;;;;;;32.35;20.10;;;5.10;99.90;;;;;;5057569;28;20473;-77
2020/12/15 06:55:34;;;;;;;31.55;19.70;;;5.10;99.90;;;;;;5047012;28;20033;-71
2020/12/15 06:58:01;;;;;;;32.60;20.80;;;5.10;99.90;;;;;;5054682;28;20565;-77
2020/12/15 07:00:37;;;;;;;28.67;17.63;;;5.00;99.90;;;;;;5055251;28;20090;-71
2020/12/15 07:03:04;;;;;;;27.08;17.33;;;5.00;99.90;;;;;;5047763;28;20035;-77
2020/12/15 07:05:31;;;;;;;25.13;16.52;;;5.00;99.90;;;;;;5045435;28;20044;-71
2020/12/15 07:07:59;;;;;;;27.60;14.98;;;4.90;99.90;;;;;;5057010;28;20032;-77
2020/12/15 07:10:29;;;;;;;24.92;14.13;;;4.90;99.90;;;;;;5053962;28;20029;-77
2020/12/15 07:12:59;;;;;;;25.48;13.80;;;4.90;99.90;;;;;;5050807;28;20032;-71
2020/12/15 07:15:29;;;;;;;22.00;12.95;;;4.90;99.90;;;;;;5049918;28;20033;-77
2020/12/15 07:17:55;;;;;;;24.60;13.15;;;4.90;99.90;;;;;;5051774;28;20103;-71
2020/12/15 07:20:22;;;;;;;30.60;14.73;;;4.80;99.90;;;;;;5059365;28;20037;-77
2020/12/15 07:22:48;;;;;;;26.63;15.45;;;4.80;99.90;;;;;;5059797;28;20033;-77
2020/12/15 07:25:15;;;;;;;25.00;15.15;;;4.90;99.90;;;;;;5056621;28;20017;-77
2020/12/15 07:27:42;;;;;;;25.98;14.70;;;4.90;99.90;;;;;;5051342;28;20379;-71
2020/12/15 07:30:10;;;;;;;27.23;16.58;;;4.70;99.90;;;;;;5062561;28;20059;-71
2020/12/15 07:32:37;;;;;;;27.60;16.42;;;4.90;99.90;;;;;;5051376;28;20049;-78
2020/12/15 07:35:05;;;;;;;29.23;16.35;;;4.90;99.90;;;;;;5059475;28;20029;-71
2020/12/15 07:37:34;;;;;;;24.27;15.73;;;4.80;99.90;;;;;;5055110;28;20025;-78
2020/12/15 07:40:05;;;;;;;26.85;16.95;;;4.90;99.90;;;;;;5057264;28;20032;-77
2020/12/15 07:42:31;;;;;;;30.75;15.95;;;4.90;99.90;;;;;;5055235;28;20029;-78
2020/12/15 07:44:58;;;;;;;19.80;12.20;;;4.90;99.90;;;;;;5056321;28;20028;-77
2020/12/15 07:47:25;;;;;;;22.45;13.18;;;4.90;99.90;;;;;;5056024;28;20033;-77
2020/12/15 07:49:56;;;;;;;24.05;13.68;;;4.80;99.90;;;;;;5061965;28;20031;-77
2020/12/15 07:52:48;;;;;;;22.65;13.15;;;4.90;99.90;;;;;;5051156;28;20059;-77
2020/12/15 07:55:15;;;;;;;25.63;17.67;;;4.90;99.90;;;;;;5055252;28;20145;-77
2020/12/15 07:57:42;;;;;;;23.77;13.75;;;4.90;99.90;;;;;;5047362;28;20497;-77
2020/12/15 08:00:08;;;;;;;21.73;15.05;;;4.90;99.90;;;;;;5056583;28;20121;-77
2020/12/15 08:02:34;;;;;;;34.45;17.50;;;4.90;99.90;;;;;;5057292;28;20040;-77
2020/12/15 08:05:07;;;;;;;32.78;19.45;;;5.00;99.90;;;;;;5050839;28;20017;-72
2020/12/15 08:07:38;;;;;;;33.08;20.55;;;5.00;99.90;;;;;;5049894;28;20044;-72
2020/12/15 08:10:04;;;;;;;31.58;18.65;;;5.00;99.90;;;;;;5049844;28;20502;-71
2020/12/15 08:12:32;;;;;;;33.42;20.90;;;5.00;99.90;;;;;;5058304;28;20037;-78
2020/12/15 08:14:58;;;;;;;34.80;21.15;;;5.00;99.90;;;;;;5049430;28;20150;-77
2020/12/15 08:17:26;;;;;;;31.90;20.73;;;5.00;99.90;;;;;;5057990;28;20063;-78
2020/12/15 08:19:58;;;;;;;34.72;18.10;;;5.00;99.90;;;;;;5062830;28;20449;-77
2020/12/15 08:22:24;;;;;;;28.75;17.15;;;5.00;99.90;;;;;;5055342;28;20043;-78
2020/12/15 08:24:55;;;;;;;29.73;17.77;;;5.00;99.90;;;;;;5049488;28;20029;-72
2020/12/15 08:27:24;;;;;;;33.25;21.60;;;5.10;99.90;;;;;;5057328;28;20036;-72
2020/12/15 08:29:50;;;;;;;37.10;19.80;;;5.10;99.90;;;;;;5055468;28;20037;-71
2020/12/15 08:32:28;;;;;;;41.35;20.83;;;5.10;99.90;;;;;;5047590;28;20053;-77
2020/12/15 08:35:01;;;;;;;33.88;19.35;;;5.10;99.90;;;;;;5055616;28;20082;-77
2020/12/15 08:37:27;;;;;;;37.38;20.92;;;5.20;99.90;;;;;;5054039;28;20041;-77
2020/12/15 08:39:54;;;;;;;35.75;18.77;;;5.20;99.90;;;;;;5049235;28;20031;-71
2020/12/15 08:42:20;;;;;;;33.67;18.48;;;5.30;99.90;;;;;;5058135;28;20035;-77
2020/12/15 08:44:47;;;;;;;33.25;18.40;;;5.40;99.90;;;;;;5055651;28;20078;-72
2020/12/15 08:47:16;;;;;;;29.10;16.38;;;5.50;99.90;;;;;;5051680;28;20033;-71
2020/12/15 08:49:42;;;;;;;28.15;17.23;;;5.50;99.90;;;;;;5059144;28;20029;-78
2020/12/15 08:52:08;;;;;;;36.85;18.98;;;5.50;99.90;;;;;;5059343;28;20588;-71
2020/12/15 08:54:43;;;;;;;41.10;19.25;;;5.60;99.90;;;;;;5063540;28;20020;-78
2020/12/15 08:57:16;;;;;;;35.70;17.05;;;5.60;99.90;;;;;;5050650;28;20124;-77
2020/12/15 08:59:42;;;;;;;38.13;20.00;;;5.60;99.90;;;;;;5056951;28;20036;-77
2020/12/15 09:02:11;;;;;;;39.38;19.88;;;5.70;99.90;;;;;;5048104;28;20420;-71
2020/12/15 09:04:37;;;;;;;35.72;18.55;;;5.70;99.90;;;;;;5053645;28;20033;-78
2020/12/15 09:07:14;;;;;;;32.70;17.65;;;5.80;99.90;;;;;;5051851;28;20175;-77
2020/12/15 09:09:40;;;;;;;39.38;19.17;;;5.70;99.90;;;;;;5046986;28;20021;-78
2020/12/15 09:12:06;;;;;;;32.42;18.23;;;5.80;99.90;;;;;;5053328;28;20369;-78
2020/12/15 09:14:31;;;;;;;33.13;17.88;;;5.80;99.90;;;;;;5056811;28;20032;-77
2020/12/15 09:16:57;;;;;;;33.85;17.65;;;5.90;99.90;;;;;;5058004;28;20044;-78
2020/12/15 09:19:25;;;;;;;36.20;18.02;;;5.90;99.90;;;;;;5053990;28;20047;-72
2020/12/15 09:22:07;;;;;;;35.13;17.20;;;5.90;99.90;;;;;;5052911;28;20115;-77
2020/12/15 09:24:42;;;;;;;30.77;16.42;;;5.90;99.90;;;;;;5054509;28;20036;-77
2020/12/15 09:27:22;;;;;;;25.85;15.95;;;6.00;99.90;;;;;;5048295;28;20136;-72
2020/12/15 09:29:48;;;;;;;32.08;19.00;;;6.00;99.90;;;;;;5053114;28;20032;-77
2020/12/15 09:32:14;;;;;;;36.08;20.33;;;6.10;99.90;;;;;;5056093;28;20089;-72
2020/12/15 09:34:40;;;;;;;37.50;21.67;;;6.20;99.90;;;;;;5048240;28;20411;-78
2020/12/15 09:37:06;;;;;;;34.38;20.95;;;6.20;99.90;;;;;;5055544;28;20067;-78
2020/12/15 09:39:32;;;;;;;30.00;18.67;;;6.20;99.90;;;;;;5055698;28;20033;-77
2020/12/15 09:41:59;;;;;;;39.28;21.00;;;6.30;99.90;;;;;;5062621;28;20066;-78
2020/12/15 09:44:25;;;;;;;35.28;18.85;;;6.40;99.90;;;;;;5057568;28;20041;-78
2020/12/15 09:46:51;;;;;;;33.65;19.08;;;6.40;99.90;;;;;;5050011;28;20060;-78
2020/12/15 09:49:16;;;;;;;36.20;18.55;;;6.40;99.90;;;;;;5053652;28;20800;-72
2020/12/15 09:51:42;;;;;;;31.38;18.08;;;6.50;99.90;;;;;;5055467;28;20033;-77
2020/12/15 09:54:09;;;;;;;34.25;18.75;;;6.60;99.90;;;;;;5054067;28;20032;-72
2020/12/15 09:56:35;;;;;;;30.48;16.20;;;6.60;99.90;;;;;;5059054;28;20032;-78
2020/12/15 09:59:01;;;;;;;38.90;20.45;;;6.60;99.90;;;;;;5051120;28;20032;-77
2020/12/15 10:01:26;;;;;;;33.00;19.83;;;6.70;99.90;;;;;;5051015;28;20083;-72
2020/12/15 10:03:52;;;;;;;35.83;20.20;;;6.80;99.90;;;;;;5047815;28;20045;-78
2020/12/15 10:06:18;;;;;;;37.55;23.33;;;6.80;99.90;;;;;;5056114;28;20025;-72
2020/12/15 10:08:44;;;;;;;30.98;18.27;;;6.90;99.90;;;;;;5047272;28;20249;-78
2020/12/15 10:11:14;;;;;;;30.60;18.00;;;6.90;99.90;;;;;;5052488;28;20025;-72
2020/12/15 10:13:40;;;;;;;29.40;17.63;;;6.90;99.90;;;;;;5051639;28;20422;-72
2020/12/15 10:16:06;;;;;;;28.05;14.88;;;7.00;99.90;;;;;;5045253;28;20052;-77
2020/12/15 10:18:31;;;;;;;27.42;15.90;;;7.10;99.90;;;;;;5055584;28;20036;-78
2020/12/15 10:20:57;;;;;;;23.63;13.23;;;7.10;99.90;;;;;;5053942;28;20411;-78
2020/12/15 10:23:22;;;;;;;23.13;14.07;;;7.10;99.90;;;;;;5052864;28;20675;-71
2020/12/15 10:25:48;;;;;;;25.23;12.75;;;7.10;99.90;;;;;;5054022;28;20025;-77
2020/12/15 10:28:14;;;;;;;25.45;14.85;;;7.20;99.90;;;;;;5055802;28;20035;-72
2020/12/15 10:30:39;;;;;;;25.08;15.60;;;7.10;99.90;;;;;;5056913;28;20416;-75
2020/12/15 10:33:07;;;;;;;24.15;14.02;;;7.00;99.90;;;;;;5053769;28;20414;-75
2020/12/15 10:35:33;;;;;;;21.85;13.68;;;7.00;99.90;;;;;;5056068;28;20444;-75
2020/12/15 10:37:58;;;;;;;22.45;14.95;;;7.00;99.90;;;;;;5053382;28;20464;-69
2020/12/15 10:40:24;;;;;;;24.45;14.30;;;7.00;99.90;;;;;;5056992;28;20097;-75
2020/12/15 10:42:50;;;;;;;25.83;13.18;;;7.00;99.90;;;;;;5052270;28;20364;-75
2020/12/15 10:45:17;;;;;;;30.85;15.63;;;6.90;99.90;;;;;;5056811;28;20369;-69
2020/12/15 10:47:43;;;;;;;25.25;15.13;;;6.90;99.90;;;;;;5048970;28;20112;-75
2020/12/15 10:50:10;;;;;;;29.27;16.63;;;7.00;99.90;;;;;;5054262;28;20024;-69
2020/12/15 10:52:36;;;;;;;31.92;18.17;;;7.00;99.90;;;;;;5058138;28;20024;-75
2020/12/15 10:55:03;;;;;;;34.10;17.67;;;7.00;99.90;;;;;;5052520;28;20545;-69
2020/12/15 10:57:29;;;;;;;31.17;18.70;;;7.00;99.90;;;;;;5056822;28;20666;-75
2020/12/15 10:59:54;;;;;;;31.10;16.77;;;7.00;99.90;;;;;;5062002;28;20547;-76
2020/12/15 11:02:20;;;;;;;28.45;18.88;;;7.00;99.90;;;;;;5057731;28;20143;-69
2020/12/15 11:04:46;;;;;;;34.45;18.67;;;7.00;99.90;;;;;;5053395;28;20035;-75
2020/12/15 11:07:11;;;;;;;34.17;21.65;;;7.10;99.90;;;;;;5060462;28;20072;-69
2020/12/15 11:09:37;;;;;;;32.80;21.77;;;7.20;99.90;;;;;;5058748;28;20391;-76
2020/12/15 11:12:03;;;;;;;34.90;22.42;;;7.20;99.90;;;;;;5058230;28;20024;-69
2020/12/15 11:14:28;;;;;;;26.98;17.88;;;7.20;99.90;;;;;;5053736;28;20033;-77
2020/12/15 11:16:57;;;;;;;22.77;13.88;;;7.20;99.90;;;;;;5061339;28;20028;-78
2020/12/15 11:19:22;;;;;;;26.95;15.52;;;7.10;99.90;;;;;;5060435;28;20460;-78
2020/12/15 11:21:50;;;;;;;21.55;12.93;;;7.10;99.90;;;;;;5047827;28;20044;-78
2020/12/15 11:24:16;;;;;;;21.70;11.77;;;7.10;99.90;;;;;;5049468;28;20044;-72
2020/12/15 11:26:42;;;;;;;22.95;13.70;;;7.20;99.90;;;;;;5054216;28;20033;-72
2020/12/15 11:29:07;;;;;;;29.35;15.40;;;7.10;99.90;;;;;;5048587;28;20064;-77
2020/12/15 11:31:33;;;;;;;29.40;14.63;;;7.10;99.90;;;;;;5064995;28;20170;-77
2020/12/15 11:33:58;;;;;;;25.17;17.08;;;7.10;99.90;;;;;;5058537;28;20497;-72
2020/12/15 11:36:25;;;;;;;31.38;16.45;;;7.10;99.90;;;;;;5053182;28;20512;-78
2020/12/15 11:38:50;;;;;;;25.15;14.95;;;7.10;99.90;;;;;;5053520;28;20027;-72
2020/12/15 11:41:16;;;;;;;27.23;16.77;;;7.20;99.90;;;;;;5059071;28;20041;-78
2020/12/15 11:43:42;;;;;;;24.77;16.75;;;7.40;99.90;;;;;;5058144;28;20078;-78
2020/12/15 11:46:07;;;;;;;24.58;15.40;;;7.40;99.90;;;;;;5055817;28;20029;-71
2020/12/15 11:48:33;;;;;;;29.30;17.10;;;7.50;99.90;;;;;;5061260;28;20479;-78
2020/12/15 11:50:59;;;;;;;25.83;15.85;;;7.60;99.90;;;;;;5054275;28;20033;-72
2020/12/15 11:53:24;;;;;;;25.15;14.40;;;7.60;99.90;;;;;;5053635;28;20051;-77
2020/12/15 11:55:50;;;;;;;25.98;13.68;;;7.60;99.90;;;;;;5051574;28;20464;-78
2020/12/15 11:58:16;;;;;;;24.77;14.30;;;7.60;99.90;;;;;;5048007;28;20044;-78
2020/12/15 12:00:41;;;;;;;66.22;31.75;;;7.70;99.90;;;;;;5048917;28;20040;-78
2020/12/15 12:03:07;;;;;;;98.85;46.13;;;7.80;99.90;;;;;;5056428;28;20067;-72
2020/12/15 12:05:33;;;;;;;62.97;30.20;;;7.90;99.90;;;;;;5059279;28;20558;-78
2020/12/15 12:07:58;;;;;;;27.70;16.27;;;7.90;99.90;;;;;;5046524;28;20040;-71
2020/12/15 12:10:24;;;;;;;23.20;14.68;;;8.00;99.90;;;;;;5050655;28;20072;-78
2020/12/15 12:12:49;;;;;;;27.88;15.90;;;8.00;99.90;;;;;;5052688;28;20112;-77
2020/12/15 12:15:15;;;;;;;30.90;17.13;;;8.10;99.90;;;;;;5052671;28;20480;-78
2020/12/15 12:17:40;;;;;;;54.72;25.75;;;8.20;99.90;;;;;;5046692;28;20047;-78
2020/12/15 12:20:06;;;;;;;40.22;19.08;;;8.20;99.90;;;;;;5057520;28;20064;-77
2020/12/15 12:22:32;;;;;;;29.52;14.98;;;8.20;99.90;;;;;;5051026;28;20087;-78
2020/12/15 12:24:57;;;;;;;21.63;13.45;;;8.30;99.90;;;;;;5051255;28;20029;-72
2020/12/15 12:27:25;;;;;;;21.17;12.65;;;8.30;99.90;;;;;;5052253;28;20037;-78
2020/12/15 12:29:50;;;;;;;26.95;15.95;;;8.30;99.90;;;;;;5049549;28;20021;-72
2020/12/15 12:32:16;;;;;;;23.83;15.77;;;8.30;99.90;;;;;;5055521;28;20509;-78
2020/12/15 12:34:41;;;;;;;20.92;14.10;;;8.30;99.90;;;;;;5052352;28;20061;-78
2020/12/15 12:37:10;;;;;;;23.42;13.40;;;8.40;99.90;;;;;;5059489;28;20029;-78